DTTJ

Djerba Zarzis International Airport

Djerba, Tunisia
METAR DTTJ 191500Z 12010KT 9999 SCT033 17/06 Q1013 NOSIG
Observed Flight Rules
Jan-19 @ 15:00 UTC (23 minutes ago) Visual Flight Rules
Wind Visibility Clouds
120° at 10 knots 10,000+ meters
  • Scattered at 3,300' AGL
Temperatures Readings
Current 17°C / 63°F
Dewpoint 6°C / 43°F
Humidity 49%
Altimeter 29.91" Hg
Pressure 1013 hPa
Elevation 4
METAR DTTJ 191500Z 12010KT 9999 SCT033 17/06 Q1013 NOSIG
Observed Flight Rules
Jan-19 @ 15:00 UTC
(23 minutes ago)
VFR
Wind Visibility
120° at 10 knots 10,000+ meters
Clouds
  • Scattered at 3,300' AGL
Temperature Dewpoint
17°C / 63°F 6°C / 43°F
Humidity Altimeter Pressure
49% 29.91" Hg 1013 hPa